Time;durP1;ratioP1;P1;durP2;ratioP2;P2;SDS_P1;SDS_P2;PMS_P1;PMS_P2;Temp;Humidity;BMP_temperature;BMP_pressure;BME280_temperature;BME280_humidity;BME280_pressure;Samples;Min_cycle;Max_cycle;Signal;HPM_P1;HPM_P2
2023/09/29 00:02:36;;;;;;;23.05;18.55;;;17.60;99.90;;;;;;5013721;28;20244;-70
2023/09/29 00:05:25;;;;;;;23.77;17.88;;;17.70;99.90;;;;;;5021043;28;20230;-71
2023/09/29 00:08:16;;;;;;;23.20;18.35;;;17.60;99.90;;;;;;5022628;28;20218;-71
2023/09/29 00:11:06;;;;;;;24.45;17.85;;;17.70;99.90;;;;;;5026358;28;20225;-70
2023/09/29 00:13:55;;;;;;;26.35;18.38;;;17.70;99.90;;;;;;5032443;28;20253;-71
2023/09/29 00:16:44;;;;;;;24.35;18.42;;;17.70;99.90;;;;;;5018914;28;20221;-70
2023/09/29 00:19:34;;;;;;;25.05;18.63;;;17.60;99.90;;;;;;5022432;28;20226;-68
2023/09/29 00:22:23;;;;;;;25.95;18.42;;;17.60;99.90;;;;;;5018706;28;20225;-69
2023/09/29 00:25:12;;;;;;;26.05;18.63;;;17.50;99.90;;;;;;5013531;28;20236;-70
2023/09/29 00:28:01;;;;;;;25.08;18.80;;;17.50;99.90;;;;;;5025288;28;20214;-71
2023/09/29 00:30:50;;;;;;;21.50;17.60;;;17.50;99.90;;;;;;5019583;28;20323;-72
2023/09/29 00:33:39;;;;;;;26.55;18.65;;;17.50;99.90;;;;;;5019302;28;21534;-71
2023/09/29 00:36:29;;;;;;;24.42;19.20;;;17.40;99.90;;;;;;5011154;28;20728;-71
2023/09/29 00:39:18;;;;;;;24.45;19.50;;;17.40;99.90;;;;;;5020485;28;20238;-71
2023/09/29 00:42:07;;;;;;;24.65;19.33;;;17.40;99.90;;;;;;5008867;28;20340;-70
2023/09/29 00:44:56;;;;;;;26.33;18.73;;;17.30;99.90;;;;;;5008121;28;20737;-72
2023/09/29 00:47:49;;;;;;;25.70;19.48;;;17.30;99.90;;;;;;5020374;28;20222;-73
2023/09/29 00:50:40;;;;;;;25.42;19.48;;;17.30;99.90;;;;;;5005970;28;20312;-71
2023/09/29 00:53:30;;;;;;;23.42;18.98;;;17.30;99.90;;;;;;5021844;28;20245;-73
2023/09/29 00:56:21;;;;;;;27.42;20.20;;;17.20;99.90;;;;;;5018848;28;20233;-72
2023/09/29 00:59:10;;;;;;;25.92;19.55;;;17.20;99.90;;;;;;5011758;28;20307;-73
2023/09/29 01:02:02;;;;;;;24.00;19.38;;;17.30;99.90;;;;;;5024138;28;20558;-72
2023/09/29 01:04:51;;;;;;;26.27;18.77;;;17.20;99.90;;;;;;5015942;28;20225;-73
2023/09/29 01:07:41;;;;;;;31.42;19.80;;;17.10;99.90;;;;;;5015287;28;20225;-73
2023/09/29 01:10:32;;;;;;;26.23;18.95;;;17.20;99.90;;;;;;5010588;28;20294;-72
2023/09/29 01:13:22;;;;;;;30.27;20.00;;;17.10;99.90;;;;;;5018086;28;20224;-72
2023/09/29 01:16:11;;;;;;;26.80;19.95;;;17.10;99.90;;;;;;5025052;28;20753;-73
2023/09/29 01:19:00;;;;;;;27.35;20.00;;;17.00;99.90;;;;;;5014428;28;20570;-71
2023/09/29 01:21:51;;;;;;;27.77;20.98;;;16.90;99.90;;;;;;5004857;28;20709;-72
2023/09/29 01:24:41;;;;;;;27.75;20.35;;;16.90;99.90;;;;;;5011664;28;20535;-72
2023/09/29 01:27:30;;;;;;;28.33;20.65;;;16.80;99.90;;;;;;5015857;28;20252;-70
2023/09/29 01:30:19;;;;;;;23.58;20.10;;;16.80;99.90;;;;;;5003182;28;20828;-72
2023/09/29 01:33:08;;;;;;;27.88;20.80;;;17.00;99.90;;;;;;5011877;28;20264;-73
2023/09/29 01:35:58;;;;;;;30.05;20.52;;;16.90;99.90;;;;;;5019774;28;20389;-72
2023/09/29 01:38:47;;;;;;;28.95;21.75;;;16.70;99.90;;;;;;5017211;28;20222;-72
2023/09/29 01:41:43;;;;;;;25.33;20.73;;;16.80;99.90;;;;;;5014480;28;20216;-71
2023/09/29 01:44:33;;;;;;;25.38;20.23;;;16.60;99.90;;;;;;5013307;28;20226;-71
2023/09/29 01:47:22;;;;;;;27.92;19.80;;;16.60;99.90;;;;;;4998585;28;20225;-72
2023/09/29 01:50:14;;;;;;;27.95;20.63;;;16.60;99.90;;;;;;5005592;28;20222;-73
2023/09/29 01:53:04;;;;;;;25.10;20.33;;;16.70;99.90;;;;;;5001578;28;20530;-73
2023/09/29 01:55:54;;;;;;;26.25;21.52;;;16.50;99.90;;;;;;4997328;28;20377;-72
2023/09/29 01:58:45;;;;;;;27.23;20.58;;;16.50;99.90;;;;;;4985460;28;20249;-74
2023/09/29 02:01:37;;;;;;;33.42;22.10;;;16.50;99.90;;;;;;5016778;28;20232;-72
2023/09/29 02:04:25;;;;;;;27.92;20.80;;;16.50;99.90;;;;;;5014024;28;20223;-72
2023/09/29 02:07:14;;;;;;;27.90;20.52;;;16.60;99.90;;;;;;5011975;28;20245;-72
2023/09/29 02:10:04;;;;;;;27.35;20.45;;;16.60;99.90;;;;;;5023289;28;20846;-72
2023/09/29 02:12:56;;;;;;;27.95;21.90;;;16.60;99.90;;;;;;5006048;28;20281;-72
2023/09/29 02:15:47;;;;;;;29.50;20.88;;;16.60;99.90;;;;;;5017768;28;20222;-72
2023/09/29 02:18:36;;;;;;;30.80;21.52;;;16.60;99.90;;;;;;5015812;28;20275;-73
2023/09/29 02:21:28;;;;;;;29.95;21.02;;;16.50;99.90;;;;;;5012565;28;20227;-72
2023/09/29 02:24:17;;;;;;;24.48;20.67;;;16.50;99.90;;;;;;5019444;28;20700;-72
2023/09/29 02:27:06;;;;;;;28.17;20.90;;;16.50;99.90;;;;;;4993371;28;20254;-73
2023/09/29 02:29:55;;;;;;;26.10;20.50;;;16.50;99.90;;;;;;5007373;28;20218;-72
2023/09/29 02:32:45;;;;;;;27.10;21.52;;;16.50;99.90;;;;;;5020705;28;20221;-72
2023/09/29 02:35:34;;;;;;;26.05;20.77;;;16.50;99.90;;;;;;5021326;28;20725;-72
2023/09/29 02:38:23;;;;;;;32.10;21.70;;;16.50;99.90;;;;;;5008181;28;20222;-72
2023/09/29 02:41:13;;;;;;;31.55;21.90;;;16.60;99.90;;;;;;5019972;28;20226;-73
2023/09/29 02:44:02;;;;;;;27.98;21.17;;;16.60;99.90;;;;;;5000866;28;20698;-73
2023/09/29 02:46:51;;;;;;;26.55;21.27;;;16.50;99.90;;;;;;5022932;28;20209;-72
2023/09/29 02:49:42;;;;;;;24.45;20.85;;;16.40;99.90;;;;;;5022333;28;20764;-72
2023/09/29 02:52:31;;;;;;;29.05;21.77;;;16.30;99.90;;;;;;5020864;28;20795;-72
2023/09/29 02:55:20;;;;;;;31.42;21.27;;;16.20;99.90;;;;;;5008153;28;20700;-71
2023/09/29 02:58:10;;;;;;;27.35;20.50;;;16.20;99.90;;;;;;5010067;28;20233;-72
2023/09/29 03:00:59;;;;;;;26.52;21.35;;;16.20;99.90;;;;;;5020654;28;20679;-71
2023/09/29 03:03:48;;;;;;;27.70;20.65;;;16.10;99.90;;;;;;5007632;28;20225;-72
2023/09/29 03:06:38;;;;;;;27.40;21.75;;;16.10;99.90;;;;;;5030029;28;20228;-71
2023/09/29 03:09:29;;;;;;;29.65;20.63;;;16.00;99.90;;;;;;5022680;28;20219;-70
2023/09/29 03:12:18;;;;;;;27.77;20.88;;;16.00;99.90;;;;;;5006291;28;20222;-72
2023/09/29 03:15:09;;;;;;;27.77;20.67;;;16.00;99.90;;;;;;5023731;28;20221;-71
2023/09/29 03:17:59;;;;;;;28.50;20.80;;;16.00;99.90;;;;;;5007914;28;20538;-71
2023/09/29 03:20:52;;;;;;;31.58;20.67;;;16.20;99.90;;;;;;5016292;28;20257;-72
2023/09/29 03:23:42;;;;;;;27.65;21.13;;;16.20;99.90;;;;;;5023874;28;20257;-72
2023/09/29 03:26:32;;;;;;;32.40;21.67;;;16.10;99.90;;;;;;5009489;28;20229;-72
2023/09/29 03:29:22;;;;;;;28.58;19.73;;;16.10;99.90;;;;;;5004332;28;20287;-70
2023/09/29 03:32:11;;;;;;;27.63;20.92;;;16.10;99.90;;;;;;5016030;28;20716;-72
2023/09/29 03:35:00;;;;;;;28.08;22.15;;;16.20;99.90;;;;;;5005248;28;20244;-72
2023/09/29 03:37:49;;;;;;;25.08;20.60;;;16.20;99.90;;;;;;5024546;28;20411;-73
2023/09/29 03:40:44;;;;;;;25.50;21.08;;;16.20;99.90;;;;;;5017693;28;20222;-73
2023/09/29 03:43:33;;;;;;;26.48;20.33;;;16.20;99.90;;;;;;5012022;28;20720;-72
2023/09/29 03:46:22;;;;;;;26.27;21.10;;;16.10;99.90;;;;;;5023812;28;20748;-74
2023/09/29 03:49:11;;;;;;;27.35;20.52;;;16.20;99.90;;;;;;5020802;28;20727;-71
2023/09/29 03:52:00;;;;;;;25.80;20.92;;;16.10;99.90;;;;;;5008150;28;20228;-72
2023/09/29 03:54:49;;;;;;;24.17;20.85;;;16.10;99.90;;;;;;5018662;28;20545;-73
2023/09/29 03:57:41;;;;;;;31.30;21.67;;;16.10;99.90;;;;;;5017024;28;20273;-72
2023/09/29 04:00:30;;;;;;;24.92;20.35;;;16.00;99.90;;;;;;5024174;28;20241;-72
2023/09/29 04:03:20;;;;;;;31.30;21.15;;;16.10;99.90;;;;;;5014526;28;20217;-73
2023/09/29 04:06:09;;;;;;;25.52;20.55;;;15.90;99.90;;;;;;5020133;28;20363;-72
2023/09/29 04:08:58;;;;;;;31.10;21.42;;;15.90;99.90;;;;;;5025565;28;20264;-73
2023/09/29 04:11:49;;;;;;;27.13;21.35;;;15.80;99.90;;;;;;5022059;28;20236;-72
2023/09/29 04:14:40;;;;;;;26.65;20.08;;;15.70;99.90;;;;;;5015775;28;20590;-72
2023/09/29 04:17:29;;;;;;;26.30;20.60;;;15.80;99.90;;;;;;5026739;28;20238;-71
2023/09/29 04:20:19;;;;;;;29.02;21.63;;;15.80;99.90;;;;;;5013427;28;20230;-70
2023/09/29 04:23:08;;;;;;;28.40;20.80;;;15.80;99.90;;;;;;5017190;28;21014;-72
2023/09/29 04:25:57;;;;;;;27.63;21.23;;;15.80;99.90;;;;;;5016011;28;20226;-72
2023/09/29 04:28:46;;;;;;;25.05;19.38;;;15.70;99.90;;;;;;5018307;28;20654;-72
2023/09/29 04:31:36;;;;;;;25.58;21.05;;;15.70;99.90;;;;;;5018417;28;20318;-71
2023/09/29 04:34:25;;;;;;;27.02;21.33;;;15.60;99.90;;;;;;5020736;28;20241;-73
2023/09/29 04:37:14;;;;;;;24.70;20.45;;;15.60;99.90;;;;;;5010160;28;20230;-71
2023/09/29 04:40:04;;;;;;;28.58;21.35;;;15.60;99.90;;;;;;5026344;28;20237;-71
2023/09/29 04:42:54;;;;;;;29.23;20.58;;;15.70;99.90;;;;;;5015778;28;20749;-73
2023/09/29 04:45:43;;;;;;;28.45;20.67;;;15.60;99.90;;;;;;5007511;28;20247;-72
2023/09/29 04:48:33;;;;;;;27.30;21.23;;;15.60;99.90;;;;;;5005681;28;20222;-72
2023/09/29 04:51:22;;;;;;;27.98;19.90;;;15.70;99.90;;;;;;4996790;28;20264;-73
2023/09/29 04:54:11;;;;;;;26.63;19.67;;;15.70;99.90;;;;;;5019494;28;20244;-72
2023/09/29 04:57:00;;;;;;;28.95;19.52;;;15.80;99.90;;;;;;5024344;28;20303;-71
2023/09/29 04:59:50;;;;;;;30.00;21.08;;;15.70;99.90;;;;;;5019632;28;20214;-72
2023/09/29 05:02:39;;;;;;;27.85;19.42;;;15.80;99.90;;;;;;5001918;28;20221;-70
2023/09/29 05:05:30;;;;;;;27.80;20.58;;;15.90;99.90;;;;;;5016282;28;20751;-71
2023/09/29 05:08:19;;;;;;;29.48;20.70;;;15.80;99.90;;;;;;5018833;28;20330;-73
2023/09/29 05:11:08;;;;;;;27.48;19.70;;;15.80;99.90;;;;;;5021904;28;20256;-71
2023/09/29 05:13:57;;;;;;;26.95;20.27;;;15.80;99.90;;;;;;5020596;28;20221;-72
2023/09/29 05:16:47;;;;;;;29.05;20.23;;;15.90;99.90;;;;;;5016748;28;20222;-74
2023/09/29 05:19:36;;;;;;;28.20;20.90;;;15.90;99.90;;;;;;5005060;28;20223;-70
2023/09/29 05:22:26;;;;;;;25.02;19.80;;;16.00;99.90;;;;;;5027270;28;20310;-69
2023/09/29 05:25:15;;;;;;;24.00;20.48;;;16.10;99.90;;;;;;5017960;28;20729;-71
2023/09/29 05:28:04;;;;;;;28.90;19.42;;;16.00;99.90;;;;;;5014594;28;20255;-71
2023/09/29 05:30:55;;;;;;;25.15;19.15;;;16.00;99.90;;;;;;5017060;28;20252;-71
2023/09/29 05:33:44;;;;;;;24.63;19.77;;;16.00;99.90;;;;;;5003177;28;20868;-71
2023/09/29 05:36:33;;;;;;;24.60;19.67;;;16.00;99.90;;;;;;5005490;28;20388;-72
2023/09/29 05:39:24;;;;;;;27.33;20.23;;;16.10;99.90;;;;;;5014868;28;20736;-73
2023/09/29 05:42:13;;;;;;;25.23;20.15;;;16.10;99.90;;;;;;5001864;28;20232;-72
2023/09/29 05:45:02;;;;;;;30.10;20.02;;;16.20;99.90;;;;;;5017068;28;20225;-71
2023/09/29 05:47:52;;;;;;;24.88;18.95;;;16.20;99.90;;;;;;5013012;28;20229;-70
2023/09/29 05:50:41;;;;;;;32.28;19.73;;;16.30;99.90;;;;;;5015734;28;20229;-73
2023/09/29 05:53:30;;;;;;;26.35;19.20;;;16.20;99.90;;;;;;5016081;28;20233;-72
2023/09/29 05:56:21;;;;;;;25.70;19.73;;;16.40;99.90;;;;;;5014842;28;20822;-71
2023/09/29 05:59:10;;;;;;;32.38;19.77;;;16.50;99.90;;;;;;4999032;28;20605;-71
2023/09/29 06:01:59;;;;;;;24.27;18.65;;;16.60;99.90;;;;;;5017130;28;20710;-70
2023/09/29 06:05:08;;;;;;;24.98;18.67;;;16.70;99.90;;;;;;5015779;28;20361;-75
2023/09/29 06:07:57;;;;;;;22.98;18.70;;;16.80;99.90;;;;;;5013869;28;20222;-72
2023/09/29 06:10:46;;;;;;;26.75;18.20;;;16.90;99.90;;;;;;5016818;28;20300;-73
2023/09/29 06:13:37;;;;;;;26.88;18.00;;;17.00;99.90;;;;;;4999580;28;20230;-72
2023/09/29 06:16:26;;;;;;;27.08;17.08;;;17.00;99.90;;;;;;5018794;28;20225;-73
2023/09/29 06:19:16;;;;;;;27.77;18.95;;;17.00;99.90;;;;;;5013996;28;20640;-71
2023/09/29 06:22:05;;;;;;;26.98;17.92;;;17.10;99.90;;;;;;5014752;28;20746;-74
2023/09/29 06:24:54;;;;;;;27.67;18.23;;;17.10;99.90;;;;;;5021048;28;20307;-72
2023/09/29 06:27:43;;;;;;;24.05;18.08;;;17.20;99.90;;;;;;5022775;28;20232;-72
2023/09/29 06:30:34;;;;;;;26.50;17.40;;;17.30;99.90;;;;;;5015288;28;20226;-70
2023/09/29 06:33:23;;;;;;;23.25;16.95;;;17.40;99.90;;;;;;5021815;28;20244;-71
2023/09/29 06:36:12;;;;;;;26.58;17.17;;;17.40;99.90;;;;;;4986053;28;20230;-71
2023/09/29 06:39:01;;;;;;;25.50;17.13;;;17.50;99.90;;;;;;4977175;28;20764;-72
2023/09/29 06:41:50;;;;;;;21.35;16.60;;;17.60;99.90;;;;;;5006217;28;20217;-71
2023/09/29 06:44:39;;;;;;;23.42;16.38;;;17.60;99.90;;;;;;4994411;28;20314;-72
2023/09/29 06:47:29;;;;;;;27.33;16.30;;;17.60;99.90;;;;;;4995042;28;20273;-70
2023/09/29 06:50:18;;;;;;;20.73;16.08;;;17.70;99.90;;;;;;4997685;28;20266;-72
2023/09/29 06:53:07;;;;;;;22.08;15.45;;;17.70;99.90;;;;;;4984426;28;20320;-71
2023/09/29 06:55:57;;;;;;;19.52;15.40;;;17.80;99.90;;;;;;4992509;28;20233;-71
2023/09/29 06:58:47;;;;;;;23.30;15.98;;;17.90;99.90;;;;;;4997879;28;20266;-69
2023/09/29 07:01:36;;;;;;;25.23;15.43;;;17.90;99.90;;;;;;5006242;28;20222;-69
2023/09/29 07:04:27;;;;;;;21.65;15.65;;;18.00;99.90;;;;;;5001027;28;20574;-71
2023/09/29 07:07:16;;;;;;;23.48;16.25;;;18.10;99.90;;;;;;4995558;28;20870;-72
2023/09/29 07:10:06;;;;;;;26.85;16.67;;;18.10;99.90;;;;;;4997401;28;20349;-72
2023/09/29 07:12:56;;;;;;;23.83;16.23;;;18.20;99.90;;;;;;4996238;28;20223;-72
2023/09/29 07:15:46;;;;;;;19.33;15.48;;;18.20;99.90;;;;;;5000965;28;20362;-72
2023/09/29 07:18:35;;;;;;;21.08;15.70;;;18.30;99.90;;;;;;4999138;28;20218;-74
2023/09/29 07:21:26;;;;;;;25.33;16.88;;;18.30;99.90;;;;;;5002321;28;20322;-73
2023/09/29 07:24:16;;;;;;;22.75;16.92;;;18.40;99.90;;;;;;5000813;28;20252;-73
2023/09/29 07:27:05;;;;;;;23.30;15.85;;;18.50;99.90;;;;;;5001776;28;20225;-72
2023/09/29 07:29:54;;;;;;;24.98;16.48;;;18.60;99.90;;;;;;4981567;28;20218;-72
2023/09/29 07:32:43;;;;;;;21.58;15.73;;;18.60;99.90;;;;;;4987321;28;20227;-73
2023/09/29 07:35:33;;;;;;;22.85;14.90;;;18.70;99.90;;;;;;5001113;28;20245;-71
2023/09/29 07:38:23;;;;;;;28.27;16.13;;;18.80;99.90;;;;;;5016236;28;20221;-73
2023/09/29 07:41:12;;;;;;;22.80;14.95;;;18.80;99.90;;;;;;5012153;28;20704;-74
2023/09/29 07:44:01;;;;;;;24.00;14.85;;;19.00;99.90;;;;;;5016235;28;20217;-73
2023/09/29 07:46:53;;;;;;;24.27;15.35;;;19.30;99.90;;;;;;5005563;28;20228;-73
2023/09/29 07:49:42;;;;;;;27.67;15.15;;;19.70;99.90;;;;;;5005474;28;20240;-74
2023/09/29 07:52:31;;;;;;;24.38;14.90;;;20.30;99.90;;;;;;5015847;28;20261;-72
2023/09/29 07:55:21;;;;;;;34.42;14.68;;;20.90;99.90;;;;;;5019244;28;20701;-74
2023/09/29 07:58:10;;;;;;;33.97;14.93;;;21.40;99.90;;;;;;5015080;28;20249;-72
2023/09/29 08:01:01;;;;;;;19.10;14.00;;;21.90;99.90;;;;;;5018564;28;20229;-74
2023/09/29 08:03:50;;;;;;;20.58;14.57;;;22.30;99.90;;;;;;5000752;28;20226;-73
2023/09/29 08:06:39;;;;;;;25.15;14.60;;;22.60;99.90;;;;;;5016457;28;20248;-73
2023/09/29 08:09:29;;;;;;;19.08;13.00;;;22.90;99.90;;;;;;5012087;28;20783;-73
2023/09/29 08:12:20;;;;;;;19.35;12.77;;;23.20;99.90;;;;;;5018092;28;20222;-72
2023/09/29 08:15:11;;;;;;;20.67;13.20;;;23.30;99.90;;;;;;5016202;28;21103;-73
2023/09/29 08:18:00;;;;;;;19.50;13.35;;;23.60;99.90;;;;;;5006282;28;20268;-74
2023/09/29 08:20:53;;;;;;;22.52;13.48;;;24.00;99.90;;;;;;5018253;28;20229;-74
2023/09/29 08:23:42;;;;;;;19.05;14.20;;;24.40;99.90;;;;;;5015041;28;20252;-73
2023/09/29 08:26:31;;;;;;;23.13;13.40;;;24.70;99.90;;;;;;4997456;28;20234;-73
2023/09/29 08:29:22;;;;;;;22.60;13.43;;;25.10;99.90;;;;;;5021732;28;20232;-73
2023/09/29 08:32:11;;;;;;;21.00;12.93;;;25.50;99.90;;;;;;5020254;28;20307;-74
2023/09/29 08:35:00;;;;;;;18.52;12.25;;;25.80;99.90;;;;;;5000946;28;20241;-74
2023/09/29 08:37:50;;;;;;;21.45;12.75;;;26.10;99.90;;;;;;5013878;28;20760;-74
2023/09/29 08:40:39;;;;;;;25.17;13.45;;;26.40;99.90;;;;;;5012934;28;20229;-75
2023/09/29 08:43:30;;;;;;;24.25;12.40;;;26.50;99.90;;;;;;5016530;28;20232;-75
2023/09/29 08:46:20;;;;;;;19.60;12.70;;;26.90;99.90;;;;;;5016133;28;20222;-72
2023/09/29 08:49:11;;;;;;;15.30;12.35;;;27.00;99.90;;;;;;5020244;28;20834;-73
2023/09/29 08:52:03;;;;;;;22.80;13.43;;;26.80;99.90;;;;;;5016968;28;20979;-71
2023/09/29 08:54:52;;;;;;;20.67;12.05;;;26.50;99.90;;;;;;5017068;28;20699;-73
2023/09/29 08:57:43;;;;;;;25.08;12.30;;;26.30;99.90;;;;;;5001836;28;20753;-74
2023/09/29 09:00:38;;;;;;;34.30;12.50;;;25.80;99.90;;;;;;5001966;28;20225;-75
2023/09/29 09:03:32;;;;;;;34.85;13.48;;;25.00;99.90;;;;;;5013703;28;20323;-75
2023/09/29 09:06:24;;;;;;;22.05;12.10;;;24.60;99.90;;;;;;5018992;28;20226;-73
2023/09/29 09:09:13;;;;;;;22.48;13.38;;;24.20;99.90;;;;;;5016796;28;20377;-73
2023/09/29 09:12:02;;;;;;;21.90;11.55;;;23.90;99.90;;;;;;5017227;28;20701;-72
2023/09/29 09:14:51;;;;;;;20.58;11.77;;;23.70;99.90;;;;;;5002059;28;20232;-73
2023/09/29 09:17:40;;;;;;;30.92;14.60;;;23.60;99.90;;;;;;5015682;28;20237;-76
2023/09/29 09:20:31;;;;;;;19.23;11.48;;;23.40;99.90;;;;;;5016126;28;20700;-74
2023/09/29 09:23:20;;;;;;;15.98;10.90;;;23.30;99.90;;;;;;5034200;28;20237;-73
2023/09/29 09:26:13;;;;;;;19.00;10.70;;;23.30;99.90;;;;;;5029299;28;20225;-73
2023/09/29 09:29:10;;;;;;;16.45;10.57;;;23.30;99.90;;;;;;5019757;28;20252;-75
2023/09/29 09:31:59;;;;;;;15.73;9.90;;;23.20;99.90;;;;;;5015017;28;20707;-72
2023/09/29 09:34:49;;;;;;;15.75;10.43;;;23.20;99.90;;;;;;5017210;28;20621;-75
2023/09/29 09:37:42;;;;;;;16.52;11.02;;;23.10;99.90;;;;;;5004234;28;20341;-71
2023/09/29 09:40:32;;;;;;;18.15;10.82;;;23.00;99.90;;;;;;5018999;28;20218;-73
2023/09/29 09:43:23;;;;;;;16.48;9.85;;;23.00;99.90;;;;;;5018656;28;20222;-72
2023/09/29 09:46:13;;;;;;;15.60;9.70;;;23.10;99.90;;;;;;4995698;28;20252;-72
2023/09/29 09:49:09;;;;;;;17.90;10.40;;;23.00;99.90;;;;;;5019852;28;20312;-69
2023/09/29 09:52:06;;;;;;;15.88;10.18;;;23.00;99.90;;;;;;5024027;28;20838;-72
2023/09/29 09:54:58;;;;;;;18.42;10.63;;;23.00;99.90;;;;;;5010723;28;20214;-70
2023/09/29 09:57:50;;;;;;;19.23;11.93;;;23.00;99.90;;;;;;5006170;28;20229;-72
2023/09/29 10:00:41;;;;;;;12.88;11.18;;;22.90;99.90;;;;;;5014739;28;20737;-72
2023/09/29 10:03:31;;;;;;;27.75;13.68;;;22.90;99.90;;;;;;5000087;28;20237;-72
2023/09/29 10:06:21;;;;;;;13.75;9.57;;;22.90;99.90;;;;;;5004756;28;20710;-72
2023/09/29 10:09:11;;;;;;;19.48;9.90;;;22.90;99.90;;;;;;5000417;28;20225;-71
2023/09/29 10:12:02;;;;;;;17.55;9.30;;;22.90;99.90;;;;;;4984978;28;20231;-71
2023/09/29 10:14:52;;;;;;;13.23;8.45;;;23.00;99.90;;;;;;5001112;28;20214;-72
2023/09/29 10:17:43;;;;;;;14.45;9.10;;;23.10;99.90;;;;;;5003706;28;20734;-73
2023/09/29 10:20:35;;;;;;;14.93;9.15;;;23.20;99.90;;;;;;4990259;28;20247;-71
2023/09/29 10:23:26;;;;;;;20.08;8.98;;;23.20;99.90;;;;;;5011133;28;20222;-72
2023/09/29 10:26:15;;;;;;;14.02;8.57;;;23.30;99.90;;;;;;5012877;28;20685;-72
2023/09/29 10:29:09;;;;;;;15.13;9.38;;;23.30;99.90;;;;;;5009937;28;20288;-72
2023/09/29 10:32:10;;;;;;;17.15;8.63;;;23.30;99.90;;;;;;5015573;28;20589;-72
2023/09/29 10:35:05;;;;;;;13.55;8.88;;;23.30;99.90;;;;;;5010009;28;20246;-74
2023/09/29 10:37:55;;;;;;;14.55;8.30;;;23.30;99.90;;;;;;5019804;28;20217;-75
2023/09/29 10:40:45;;;;;;;21.55;8.48;;;23.40;99.90;;;;;;5012327;28;20217;-72
2023/09/29 10:43:36;;;;;;;12.15;8.32;;;23.40;99.90;;;;;;4996000;28;20363;-74
2023/09/29 10:46:28;;;;;;;12.45;8.60;;;23.40;99.90;;;;;;5022449;28;20225;-73
2023/09/29 10:49:17;;;;;;;13.38;8.90;;;23.40;99.90;;;;;;5001656;28;20222;-73
2023/09/29 10:52:17;;;;;;;18.27;11.57;;;23.50;99.90;;;;;;5026235;28;20621;-74
2023/09/29 10:55:07;;;;;;;13.25;8.02;;;23.40;99.90;;;;;;5012373;28;20259;-73
2023/09/29 10:57:59;;;;;;;10.10;7.32;;;23.60;99.90;;;;;;5015413;28;20255;-74
2023/09/29 11:00:51;;;;;;;11.82;7.20;;;23.60;99.90;;;;;;5020452;28;20298;-74
2023/09/29 11:03:41;;;;;;;13.15;7.22;;;23.70;99.90;;;;;;5017669;28;20228;-72
2023/09/29 11:06:30;;;;;;;14.45;7.72;;;23.80;99.90;;;;;;5016426;28;20233;-73
2023/09/29 11:09:25;;;;;;;13.45;7.55;;;23.70;99.90;;;;;;4997983;28;20769;-73
2023/09/29 11:12:18;;;;;;;9.15;6.78;;;23.80;99.90;;;;;;5002260;28;20253;-75
2023/09/29 11:15:09;;;;;;;17.13;6.95;;;23.80;99.90;;;;;;5025415;28;20226;-74
2023/09/29 11:17:58;;;;;;;14.48;7.57;;;23.90;99.90;;;;;;5007623;28;20232;-73
2023/09/29 11:20:53;;;;;;;11.98;6.78;;;23.90;99.90;;;;;;5007142;28;20229;-73
2023/09/29 11:23:46;;;;;;;12.00;7.10;;;23.90;99.90;;;;;;5009610;28;20358;-74
2023/09/29 11:26:35;;;;;;;15.98;7.18;;;24.00;99.90;;;;;;5020360;28;20236;-75
2023/09/29 11:29:25;;;;;;;13.48;7.40;;;24.10;99.90;;;;;;4991965;28;20234;-75
2023/09/29 11:32:14;;;;;;;17.75;6.72;;;24.10;99.90;;;;;;5018949;28;20218;-73
2023/09/29 11:35:04;;;;;;;17.13;6.82;;;24.00;99.90;;;;;;5028169;28;20221;-73
2023/09/29 11:37:55;;;;;;;8.98;7.10;;;24.00;99.90;;;;;;5029672;28;20283;-73
2023/09/29 11:40:44;;;;;;;17.23;7.18;;;24.20;99.90;;;;;;5035367;28;20259;-73
2023/09/29 11:43:33;;;;;;;13.32;6.28;;;24.20;99.90;;;;;;5008011;28;20230;-73
2023/09/29 11:46:23;;;;;;;13.10;6.45;;;24.30;99.90;;;;;;5020621;28;20291;-72
2023/09/29 11:49:12;;;;;;;10.80;6.35;;;24.30;94.40;;;;;;5009569;28;20234;-72
2023/09/29 11:52:03;;;;;;;11.05;6.28;;;24.30;95.50;;;;;;5010887;28;20637;-72
2023/09/29 11:54:53;;;;;;;11.95;6.40;;;24.30;97.10;;;;;;5019523;28;20258;-74
2023/09/29 11:57:42;;;;;;;19.42;7.05;;;24.20;98.80;;;;;;5009854;28;20322;-74
2023/09/29 12:00:31;;;;;;;14.32;6.53;;;24.10;99.90;;;;;;5017795;28;20689;-74
2023/09/29 12:03:21;;;;;;;9.18;6.07;;;24.30;91.10;;;;;;5002417;28;20237;-73
2023/09/29 12:06:10;;;;;;;10.98;6.40;;;24.30;89.90;;;;;;5005524;28;20234;-72
2023/09/29 12:09:00;;;;;;;9.65;6.00;;;24.30;91.30;;;;;;5020747;28;20234;-74
2023/09/29 12:11:51;;;;;;;10.23;6.25;;;24.20;95.80;;;;;;5018770;28;20221;-74
2023/09/29 12:14:40;;;;;;;6.78;5.78;;;24.10;99.90;;;;;;5005329;28;20229;-72
2023/09/29 12:17:30;;;;;;;12.05;5.70;;;24.30;68.80;;;;;;5000823;28;20226;-73
2023/09/29 12:20:19;;;;;;;10.63;6.18;;;24.20;59.50;;;;;;5006557;28;21192;-74
2023/09/29 12:23:09;;;;;;;9.50;6.07;;;24.30;45.90;;;;;;4987980;28;20655;-74
2023/09/29 12:25:58;;;;;;;13.45;5.47;;;24.20;37.50;;;;;;5015620;28;20601;-74
2023/09/29 12:28:52;;;;;;;11.55;6.70;;;24.30;49.40;;;;;;5016170;28;20226;-73
2023/09/29 12:31:41;;;;;;;9.30;5.55;;;24.20;59.30;;;;;;5001280;28;20261;-73
2023/09/29 12:34:32;;;;;;;7.78;5.22;;;24.20;55.90;;;;;;5004583;28;20221;-70
2023/09/29 12:37:21;;;;;;;13.18;5.80;;;24.30;40.50;;;;;;5001794;28;20754;-74
2023/09/29 12:40:11;;;;;;;14.15;6.15;;;24.40;16.20;;;;;;4996419;28;20241;-75
2023/09/29 12:43:01;;;;;;;12.52;6.22;;;24.30;23.30;;;;;;5015020;28;20214;-75
2023/09/29 12:45:51;;;;;;;10.25;6.03;;;24.30;28.20;;;;;;5019209;28;20257;-74
2023/09/29 12:48:41;;;;;;;13.23;6.50;;;24.30;40.90;;;;;;5009151;28;20242;-74
2023/09/29 12:51:30;;;;;;;13.57;6.28;;;24.40;45.80;;;;;;5014612;28;21013;-73
2023/09/29 12:54:21;;;;;;;12.40;6.05;;;24.50;40.00;;;;;;4995561;28;20828;-75
2023/09/29 12:57:10;;;;;;;11.38;6.15;;;24.50;41.20;;;;;;5010516;28;20339;-73
2023/09/29 12:59:59;;;;;;;11.75;6.05;;;24.40;46.60;;;;;;4998967;28;20953;-74
2023/09/29 13:02:53;;;;;;;10.25;6.25;;;24.40;44.50;;;;;;5027584;28;20287;-76
2023/09/29 13:05:42;;;;;;;12.30;6.57;;;24.40;53.90;;;;;;4999563;28;20218;-74
2023/09/29 13:08:33;;;;;;;13.48;6.35;;;24.30;63.30;;;;;;5005183;28;20222;-72
2023/09/29 13:11:22;;;;;;;14.77;6.43;;;24.40;60.00;;;;;;5005954;28;20665;-72
2023/09/29 13:14:11;;;;;;;10.93;7.05;;;24.40;57.30;;;;;;5012539;28;20325;-72
2023/09/29 13:17:00;;;;;;;11.32;6.78;;;24.40;48.50;;;;;;5019485;28;20225;-72
2023/09/29 13:19:50;;;;;;;13.18;6.15;;;24.30;57.10;;;;;;4998155;28;20230;-72
2023/09/29 13:22:40;;;;;;;13.00;6.50;;;24.30;66.10;;;;;;5027601;28;20218;-73
2023/09/29 13:25:29;;;;;;;10.32;6.35;;;24.30;65.60;;;;;;5017511;28;20569;-74
2023/09/29 13:28:18;;;;;;;10.00;5.90;;;24.40;59.60;;;;;;5029360;28;20233;-72
2023/09/29 13:31:11;;;;;;;12.50;6.47;;;24.50;36.40;;;;;;5023883;28;20241;-74
2023/09/29 13:33:59;;;;;;;12.40;6.40;;;24.50;20.10;;;;;;5013307;28;20244;-73
2023/09/29 13:36:51;;;;;;;17.60;6.03;;;24.50;29.00;;;;;;5015467;28;20230;-71
2023/09/29 13:39:41;;;;;;;10.30;5.97;;;24.40;40.00;;;;;;5014912;28;20902;-71
2023/09/29 13:42:30;;;;;;;9.27;5.90;;;24.40;49.40;;;;;;5034385;28;20547;-70
2023/09/29 13:45:19;;;;;;;11.40;6.20;;;24.50;21.50;;;;;;5012297;28;20234;-72
2023/09/29 13:48:10;;;;;;;10.95;5.30;;;24.50;4.40;;;;;;5012572;28;20383;-73
2023/09/29 13:51:04;;;;;;;10.23;5.60;;;24.50;1.00;;;;;;5029481;28;20249;-72
2023/09/29 13:53:55;;;;;;;11.52;6.35;;;24.40;1.00;;;;;;5015196;28;20230;-72
2023/09/29 13:56:45;;;;;;;10.30;6.18;;;24.40;1.00;;;;;;5009598;28;20232;-75
2023/09/29 13:59:34;;;;;;;15.13;6.70;;;24.40;1.00;;;;;;5010074;28;20701;-73
2023/09/29 14:02:23;;;;;;;11.63;5.82;;;24.30;1.00;;;;;;5027555;28;20217;-73
2023/09/29 14:05:12;;;;;;;13.30;6.25;;;24.40;1.00;;;;;;5020617;28;20293;-72
2023/09/29 14:08:03;;;;;;;14.27;5.88;;;24.30;1.00;;;;;;5004321;28;20240;-73
2023/09/29 14:10:54;;;;;;;10.27;6.70;;;24.20;1.00;;;;;;5013341;28;20739;-72
2023/09/29 14:13:43;;;;;;;11.90;5.20;;;24.20;1.00;;;;;;4999810;28;20375;-72
2023/09/29 14:16:32;;;;;;;7.68;5.43;;;24.20;1.00;;;;;;5019224;28;20225;-72
2023/09/29 14:19:22;;;;;;;16.42;5.55;;;24.20;1.00;;;;;;5032660;28;20304;-73
2023/09/29 14:22:11;;;;;;;9.02;5.50;;;24.20;1.00;;;;;;4998090;28;20226;-71
2023/09/29 14:25:00;;;;;;;8.38;5.40;;;24.20;1.00;;;;;;5022985;28;20237;-69
2023/09/29 14:27:50;;;;;;;13.65;5.90;;;24.20;1.00;;;;;;5027848;28;20746;-72